Time;durP1;ratioP1;P1;durP2;ratioP2;P2;SDS_P1;SDS_P2;PMS_P1;PMS_P2;Temp;Humidity;BMP_temperature;BMP_pressure;BME280_temperature;BME280_humidity;BME280_pressure;Samples;Min_cycle;Max_cycle;Signal;HPM_P1;HPM_P2
2022/12/08 00:00:52;;;;;;;29.50;26.58;;;4.10;99.90;;;;;;5073899;28;20067;-78
2022/12/08 00:03:17;;;;;;;34.42;24.55;;;4.10;99.90;;;;;;5098075;28;20032;-78
2022/12/08 00:11:14;;;;;;;27.02;24.05;;;4.10;99.90;;;;;;5106855;28;20084;-78
2022/12/08 00:13:40;;;;;;;24.35;21.67;;;4.10;99.90;;;;;;5106519;28;20012;-79
2022/12/08 00:16:07;;;;;;;28.05;24.83;;;4.20;99.90;;;;;;5106223;28;20067;-78
2022/12/08 00:18:33;;;;;;;26.10;23.30;;;4.20;99.90;;;;;;5088463;28;20026;-79
2022/12/08 00:20:59;;;;;;;27.17;23.83;;;4.80;99.90;;;;;;5088383;28;20119;-79
2022/12/08 00:23:24;;;;;;;23.20;21.08;;;4.20;99.90;;;;;;5107251;28;20038;-78
2022/12/08 00:25:50;;;;;;;23.42;19.77;;;4.20;99.90;;;;;;5106959;28;20076;-79
2022/12/08 00:28:16;;;;;;;22.63;19.25;;;4.20;99.90;;;;;;5106831;28;20048;-79
2022/12/08 00:30:43;;;;;;;23.80;19.73;;;4.20;99.90;;;;;;5106594;28;20024;-79
2022/12/08 00:33:09;;;;;;;24.30;19.95;;;4.10;99.90;;;;;;5106823;28;20017;-78
2022/12/08 00:35:35;;;;;;;20.73;18.83;;;4.00;99.90;;;;;;5107131;28;20024;-79
2022/12/08 00:38:01;;;;;;;20.95;17.45;;;4.00;99.90;;;;;;5106556;28;20050;-79
2022/12/08 00:40:27;;;;;;;21.88;18.50;;;4.20;99.90;;;;;;5106786;28;20091;-79
2022/12/08 00:42:55;;;;;;;19.90;18.13;;;4.10;99.90;;;;;;5106695;28;20028;-79
2022/12/08 00:45:20;;;;;;;23.77;21.13;;;4.40;99.90;;;;;;5088498;28;20101;-78
2022/12/08 00:47:46;;;;;;;23.30;18.33;;;4.20;99.90;;;;;;5106620;28;20024;-79
2022/12/08 00:50:12;;;;;;;20.98;18.77;;;;;;;;;;5106706;28;20081;-79
2022/12/08 00:52:38;;;;;;;20.90;18.13;;;4.10;99.90;;;;;;5088536;28;20028;-78
2022/12/08 00:55:05;;;;;;;22.42;17.55;;;;;;;;;;5106452;28;20028;-79
2022/12/08 00:57:31;;;;;;;19.80;17.85;;;4.20;99.90;;;;;;5088657;28;20024;-79
2022/12/08 00:59:57;;;;;;;20.52;18.35;;;4.20;99.90;;;;;;5068080;28;20508;-79
2022/12/08 01:02:23;;;;;;;19.45;17.42;;;;;;;;;;5105914;28;20024;-78
2022/12/08 01:04:50;;;;;;;24.40;19.25;;;4.20;99.90;;;;;;5106513;28;20035;-78
2022/12/08 01:07:15;;;;;;;21.20;19.13;;;4.30;99.90;;;;;;5106157;28;20043;-79
2022/12/08 01:09:42;;;;;;;26.10;20.58;;;;;;;;;;5106336;28;20068;-79
2022/12/08 01:12:08;;;;;;;17.48;14.88;;;4.30;99.90;;;;;;5093788;28;20035;-78
2022/12/08 01:14:34;;;;;;;18.75;16.70;;;;;;;;;;5087904;28;20032;-79
2022/12/08 01:17:00;;;;;;;17.88;16.02;;;4.30;99.90;;;;;;5106011;28;20032;-79
2022/12/08 01:19:25;;;;;;;20.35;18.45;;;4.30;99.90;;;;;;5088028;28;20044;-78
2022/12/08 01:21:51;;;;;;;19.65;17.70;;;4.40;99.90;;;;;;5105937;28;20035;-78
2022/12/08 01:24:19;;;;;;;18.73;16.23;;;4.90;99.90;;;;;;5106220;28;20032;-78
2022/12/08 01:26:47;;;;;;;18.77;16.27;;;4.40;99.90;;;;;;5088222;28;20382;-78
2022/12/08 01:29:14;;;;;;;19.88;17.80;;;4.40;99.90;;;;;;5106017;28;20036;-79
2022/12/08 01:31:40;;;;;;;14.65;13.35;;;4.50;99.90;;;;;;5105499;28;20108;-79
2022/12/08 01:34:07;;;;;;;21.20;15.68;;;4.50;99.90;;;;;;5088036;28;20032;-78
2022/12/08 01:36:38;;;;;;;18.17;16.50;;;4.40;99.90;;;;;;5105819;28;20245;-78
2022/12/08 01:39:07;;;;;;;19.30;17.50;;;4.40;99.90;;;;;;5105933;28;20040;-78
2022/12/08 01:41:35;;;;;;;16.77;14.45;;;5.00;99.90;;;;;;5105909;28;20115;-78
2022/12/08 01:44:23;;;;;;;18.20;16.13;;;4.70;99.90;;;;;;5087911;28;20032;-78
2022/12/08 01:46:51;;;;;;;16.70;14.93;;;4.30;99.90;;;;;;5096478;28;20028;-78
2022/12/08 01:49:31;;;;;;;16.33;14.73;;;4.40;99.90;;;;;;5067465;28;20036;-78
2022/12/08 01:52:18;;;;;;;20.15;16.35;;;4.30;99.90;;;;;;5088920;28;20016;-78
2022/12/08 01:55:11;;;;;;;19.08;17.27;;;4.30;99.90;;;;;;5087526;28;20032;-78
2022/12/08 01:57:44;;;;;;;19.38;17.83;;;4.30;99.90;;;;;;5095681;28;20028;-79
2022/12/08 02:00:12;;;;;;;17.35;15.57;;;4.20;99.90;;;;;;5079138;28;20032;-78
2022/12/08 02:02:59;;;;;;;18.02;16.23;;;4.20;99.90;;;;;;5104835;28;20028;-78
2022/12/08 02:05:27;;;;;;;19.05;17.10;;;4.20;99.90;;;;;;5083371;28;20028;-79
2022/12/08 02:07:55;;;;;;;17.15;15.52;;;4.20;99.90;;;;;;5087485;28;20058;-79
2022/12/08 02:10:23;;;;;;;16.23;14.52;;;4.20;99.90;;;;;;5105508;28;20031;-78
2022/12/08 02:12:52;;;;;;;16.48;14.73;;;4.20;99.90;;;;;;5105580;28;20039;-78
2022/12/08 02:15:19;;;;;;;16.02;13.95;;;4.20;99.90;;;;;;5105533;28;20073;-79
2022/12/08 02:18:19;;;;;;;16.58;14.88;;;4.10;99.90;;;;;;5105269;28;20039;-78
2022/12/08 02:20:52;;;;;;;17.88;15.98;;;4.10;99.90;;;;;;5087364;28;20490;-78
2022/12/08 02:23:56;;;;;;;19.17;15.38;;;4.10;99.90;;;;;;5105548;28;20028;-78
2022/12/08 02:26:25;;;;;;;19.83;17.70;;;4.10;99.90;;;;;;5084210;28;20063;-79
2022/12/08 02:29:16;;;;;;;16.08;14.68;;;4.50;99.90;;;;;;5086963;28;20035;-78
2022/12/08 02:32:09;;;;;;;18.73;14.10;;;4.10;99.90;;;;;;5105149;28;20028;-78
2022/12/08 02:34:52;;;;;;;15.90;14.60;;;4.20;99.90;;;;;;5087500;28;20057;-79
2022/12/08 02:37:27;;;;;;;13.25;11.45;;;4.20;99.90;;;;;;5105210;28;20040;-78
2022/12/08 02:40:27;;;;;;;16.65;14.95;;;4.10;99.90;;;;;;5087066;28;20028;-79
2022/12/08 02:43:02;;;;;;;17.17;15.48;;;4.20;99.90;;;;;;5086925;28;20043;-79
2022/12/08 02:45:38;;;;;;;17.17;15.48;;;4.30;99.90;;;;;;5105170;28;20039;-78
2022/12/08 02:48:04;;;;;;;15.40;13.77;;;4.30;99.90;;;;;;5105410;28;20055;-78
2022/12/08 02:50:31;;;;;;;12.80;11.35;;;4.30;99.90;;;;;;5087079;28;20058;-79
2022/12/08 02:52:56;;;;;;;14.27;12.85;;;4.30;99.90;;;;;;5087342;28;20032;-79
2022/12/08 02:55:28;;;;;;;14.10;12.80;;;4.30;99.90;;;;;;5087577;28;20051;-78
2022/12/08 02:58:29;;;;;;;14.40;13.13;;;4.20;99.90;;;;;;5105389;28;20028;-79
2022/12/08 03:01:09;;;;;;;15.10;12.43;;;4.30;99.90;;;;;;5067087;28;20039;-79
2022/12/08 03:03:54;;;;;;;12.73;11.20;;;4.30;99.90;;;;;;5067276;28;20036;-79
2022/12/08 03:06:49;;;;;;;15.32;14.00;;;4.30;99.90;;;;;;5088847;28;20525;-79
2022/12/08 03:09:33;;;;;;;18.42;13.70;;;4.30;99.90;;;;;;5079822;28;20099;-79
2022/12/08 03:12:13;;;;;;;15.23;13.73;;;4.30;99.90;;;;;;5108938;28;20032;-79
2022/12/08 03:14:44;;;;;;;13.70;12.48;;;4.30;99.90;;;;;;5090433;28;20032;-79
2022/12/08 03:17:12;;;;;;;15.15;13.63;;;4.50;99.90;;;;;;5090642;28;20054;-79
2022/12/08 03:19:42;;;;;;;15.85;13.52;;;4.40;99.90;;;;;;5090822;28;20024;-79
2022/12/08 03:22:09;;;;;;;16.95;14.60;;;4.40;99.90;;;;;;5108702;28;20028;-79
2022/12/08 03:24:42;;;;;;;19.88;17.35;;;4.40;99.90;;;;;;5108718;28;20039;-79
2022/12/08 03:27:20;;;;;;;20.20;17.52;;;4.40;99.90;;;;;;5090608;28;20044;-79
2022/12/08 03:29:48;;;;;;;20.63;18.52;;;4.40;99.90;;;;;;5108480;28;20531;-78
2022/12/08 03:33:02;;;;;;;22.55;20.10;;;4.40;99.90;;;;;;5090210;28;20031;-79
2022/12/08 03:35:33;;;;;;;24.67;22.23;;;4.40;99.90;;;;;;5086524;28;20032;-78
2022/12/08 03:38:09;;;;;;;22.52;20.33;;;4.40;99.90;;;;;;5108497;28;20062;-79
2022/12/08 03:40:36;;;;;;;26.95;24.42;;;4.40;99.90;;;;;;5090485;28;20504;-78
2022/12/08 03:43:03;;;;;;;30.75;27.58;;;4.40;99.90;;;;;;5073289;28;20020;-78
2022/12/08 03:45:29;;;;;;;28.08;24.60;;;4.40;99.90;;;;;;5090155;28;20036;-78
2022/12/08 03:47:55;;;;;;;29.10;22.67;;;4.40;99.90;;;;;;5108354;28;20028;-79
2022/12/08 03:50:21;;;;;;;37.63;28.25;;;4.40;99.90;;;;;;5108025;28;20032;-78
2022/12/08 03:52:47;;;;;;;33.50;26.70;;;4.40;99.90;;;;;;5108330;28;20028;-79
2022/12/08 03:55:13;;;;;;;29.45;24.85;;;4.40;99.90;;;;;;5090188;28;20024;-78
2022/12/08 03:57:39;;;;;;;28.25;24.77;;;4.40;99.90;;;;;;5089332;28;20091;-79
2022/12/08 04:00:07;;;;;;;30.13;26.95;;;4.40;99.90;;;;;;5089922;28;20054;-79
2022/12/08 04:02:33;;;;;;;28.05;25.27;;;4.40;99.90;;;;;;5108071;28;20046;-79
2022/12/08 04:04:59;;;;;;;28.15;25.20;;;4.40;99.90;;;;;;5108029;28;20028;-79
2022/12/08 04:07:29;;;;;;;27.50;24.40;;;4.40;99.90;;;;;;5107920;28;20115;-79
2022/12/08 04:09:55;;;;;;;25.70;22.92;;;4.40;99.90;;;;;;5108195;28;20043;-79
2022/12/08 04:12:20;;;;;;;30.17;26.80;;;4.40;99.90;;;;;;5107732;28;20046;-79
2022/12/08 04:14:46;;;;;;;27.65;22.70;;;4.40;99.90;;;;;;5107110;28;20039;-79
2022/12/08 04:17:13;;;;;;;26.95;24.27;;;4.30;99.90;;;;;;5107551;28;20028;-79
2022/12/08 04:19:39;;;;;;;24.60;22.25;;;4.30;99.90;;;;;;5072797;28;20371;-78
2022/12/08 04:22:06;;;;;;;24.85;21.88;;;4.30;99.90;;;;;;5089568;28;20043;-79
2022/12/08 04:24:32;;;;;;;24.42;21.50;;;4.30;99.90;;;;;;5107500;28;20035;-79
2022/12/08 04:26:58;;;;;;;24.20;21.63;;;4.30;99.90;;;;;;5107332;28;20036;-79
2022/12/08 04:29:24;;;;;;;25.35;22.52;;;4.30;99.90;;;;;;5089323;28;20036;-79
2022/12/08 04:31:50;;;;;;;25.92;23.23;;;4.30;99.90;;;;;;5107350;28;20043;-79
2022/12/08 04:34:15;;;;;;;24.80;22.38;;;4.30;99.90;;;;;;5107491;28;20020;-79
2022/12/08 04:36:41;;;;;;;25.33;21.13;;;4.20;99.90;;;;;;5088999;28;20100;-79
2022/12/08 04:39:07;;;;;;;24.52;22.15;;;4.60;99.90;;;;;;5072384;28;20036;-79
2022/12/08 04:41:33;;;;;;;24.45;21.88;;;4.30;99.90;;;;;;5089000;28;20028;-79
2022/12/08 04:43:59;;;;;;;22.00;19.77;;;;;;;;;;5088871;28;20032;-79
2022/12/08 04:46:25;;;;;;;22.90;20.67;;;4.20;99.90;;;;;;5107239;28;20056;-79
2022/12/08 04:48:51;;;;;;;23.50;21.30;;;4.20;99.90;;;;;;5106900;28;20024;-79
2022/12/08 04:51:19;;;;;;;23.70;21.48;;;4.20;99.90;;;;;;5088899;28;20131;-79
2022/12/08 04:53:45;;;;;;;27.38;19.48;;;4.20;99.90;;;;;;5106956;28;20025;-79
2022/12/08 04:56:14;;;;;;;19.55;17.67;;;4.20;99.90;;;;;;5088869;28;20428;-79
2022/12/08 04:58:40;;;;;;;22.00;18.90;;;4.20;99.90;;;;;;5106751;28;20390;-79
2022/12/08 05:01:06;;;;;;;21.48;19.33;;;4.20;99.90;;;;;;5088548;28;20036;-79
2022/12/08 05:03:32;;;;;;;23.20;19.60;;;4.20;99.90;;;;;;5106768;28;20035;-79
2022/12/08 05:05:59;;;;;;;22.58;20.25;;;4.20;99.90;;;;;;5088857;28;20028;-79
2022/12/08 05:08:25;;;;;;;29.08;21.63;;;4.10;99.90;;;;;;5106709;28;20020;-79
2022/12/08 05:10:51;;;;;;;25.30;20.33;;;4.20;99.90;;;;;;5068232;28;20024;-79
2022/12/08 05:13:17;;;;;;;24.38;20.23;;;4.10;99.90;;;;;;5093652;28;20038;-79
2022/12/08 05:15:43;;;;;;;22.23;19.98;;;4.10;99.90;;;;;;5071621;28;20024;-79
2022/12/08 05:18:09;;;;;;;21.25;18.65;;;4.50;99.90;;;;;;5071455;28;20024;-79
2022/12/08 05:20:35;;;;;;;35.28;21.90;;;4.10;99.90;;;;;;5088533;28;20051;-79
2022/12/08 05:23:01;;;;;;;24.02;21.65;;;4.10;99.90;;;;;;5088321;28;20129;-79
2022/12/08 05:25:27;;;;;;;24.15;21.63;;;4.10;99.90;;;;;;5088327;28;20021;-79
2022/12/08 05:27:53;;;;;;;25.13;20.10;;;4.10;99.90;;;;;;5087846;28;20089;-79
2022/12/08 05:30:19;;;;;;;22.98;20.85;;;4.10;99.90;;;;;;5105503;28;20390;-79
2022/12/08 05:32:44;;;;;;;22.58;20.58;;;4.10;99.90;;;;;;5087958;28;20089;-79
2022/12/08 05:35:10;;;;;;;20.08;17.42;;;4.10;99.90;;;;;;5106444;28;20488;-79
2022/12/08 05:37:36;;;;;;;21.02;19.00;;;4.10;99.90;;;;;;5071216;28;20124;-79
2022/12/08 05:40:02;;;;;;;15.52;13.93;;;4.00;99.90;;;;;;5088304;28;20040;-79
2022/12/08 05:42:28;;;;;;;16.42;14.88;;;4.00;99.90;;;;;;5060828;28;20040;-79
2022/12/08 05:44:54;;;;;;;14.25;12.80;;;4.00;99.90;;;;;;5067830;28;20051;-79
2022/12/08 05:47:19;;;;;;;14.60;13.07;;;4.00;99.90;;;;;;5063607;28;20024;-79
2022/12/08 05:49:45;;;;;;;13.25;12.15;;;3.90;99.90;;;;;;5073600;28;20039;-79
2022/12/08 05:52:11;;;;;;;14.80;13.27;;;3.90;99.90;;;;;;5093298;28;20035;-79
2022/12/08 05:54:37;;;;;;;13.50;12.27;;;3.90;99.90;;;;;;5107192;28;20478;-79
2022/12/08 05:57:03;;;;;;;17.33;15.02;;;;;;;;;;5098302;28;20033;-78
2022/12/08 05:59:29;;;;;;;20.15;16.23;;;3.80;99.90;;;;;;5067596;28;20037;-79
2022/12/08 06:01:55;;;;;;;19.70;17.50;;;3.90;99.90;;;;;;5085521;28;20035;-79
2022/12/08 06:04:21;;;;;;;24.25;21.38;;;3.80;99.90;;;;;;5067449;28;20070;-79
2022/12/08 06:06:47;;;;;;;26.30;22.70;;;3.80;99.90;;;;;;5067339;28;20036;-79
2022/12/08 06:09:13;;;;;;;31.02;26.55;;;4.60;99.90;;;;;;5085320;28;20059;-79
2022/12/08 06:11:39;;;;;;;27.83;25.05;;;;;;;;;;5088929;28;20033;-79
2022/12/08 06:14:10;;;;;;;29.33;26.42;;;3.80;99.90;;;;;;5085162;28;20035;-79
2022/12/08 06:16:37;;;;;;;28.23;25.35;;;3.80;99.90;;;;;;5085598;28;20028;-79
2022/12/08 06:19:03;;;;;;;27.77;24.67;;;3.80;99.90;;;;;;5085085;28;20021;-78
2022/12/08 06:21:29;;;;;;;27.00;24.23;;;;;;;;;;5067250;28;20040;-79
2022/12/08 06:23:56;;;;;;;36.72;27.05;;;;;;;;;;5085239;28;20032;-79
2022/12/08 06:26:22;;;;;;;28.35;25.27;;;3.70;99.90;;;;;;5101146;28;20024;-79
2022/12/08 06:28:48;;;;;;;26.67;23.75;;;3.90;99.90;;;;;;5091292;28;20028;-79
2022/12/08 06:31:17;;;;;;;29.15;25.52;;;3.70;99.90;;;;;;5099476;28;20024;-79
2022/12/08 06:33:43;;;;;;;27.40;24.77;;;3.70;99.90;;;;;;5085189;28;20043;-79
2022/12/08 06:36:11;;;;;;;32.00;26.77;;;3.70;99.90;;;;;;5089379;28;20016;-79
2022/12/08 06:38:41;;;;;;;28.25;25.40;;;3.80;99.90;;;;;;5096072;28;20098;-79
2022/12/08 06:41:06;;;;;;;23.73;21.25;;;3.80;99.90;;;;;;5068054;28;20028;-79
2022/12/08 06:43:32;;;;;;;27.35;24.80;;;3.80;99.90;;;;;;5088787;28;20031;-79
2022/12/08 06:45:59;;;;;;;28.02;25.20;;;3.70;99.90;;;;;;5071071;28;20029;-79
2022/12/08 06:48:25;;;;;;;26.65;23.70;;;3.70;99.90;;;;;;5088708;28;20088;-79
2022/12/08 06:50:51;;;;;;;28.05;25.13;;;3.70;99.90;;;;;;5096672;28;20043;-80
2022/12/08 06:53:17;;;;;;;26.70;24.00;;;3.70;99.90;;;;;;5089197;28;20031;-80
2022/12/08 06:55:50;;;;;;;28.08;25.23;;;3.70;99.90;;;;;;5088627;28;20032;-79
2022/12/08 06:58:17;;;;;;;34.40;25.05;;;3.70;99.90;;;;;;5070849;28;20103;-79
2022/12/08 07:00:44;;;;;;;26.67;23.83;;;;;;;;;;5070635;28;20028;-79
2022/12/08 07:03:10;;;;;;;22.20;19.80;;;;;;;;;;5088495;28;20031;-79
2022/12/08 07:05:37;;;;;;;22.98;19.63;;;3.60;99.90;;;;;;5096324;28;20032;-79
2022/12/08 07:08:05;;;;;;;23.40;21.13;;;3.60;99.90;;;;;;5089101;28;20032;-79
2022/12/08 07:10:31;;;;;;;22.17;19.70;;;3.60;99.90;;;;;;5101470;28;20020;-79
2022/12/08 07:12:57;;;;;;;21.25;19.17;;;3.60;99.90;;;;;;5083481;28;20289;-80
2022/12/08 07:15:23;;;;;;;20.08;18.00;;;3.60;99.90;;;;;;5108940;28;20020;-79
2022/12/08 07:17:49;;;;;;;23.27;20.10;;;;;;;;;;5108881;28;20032;-79
2022/12/08 07:20:15;;;;;;;24.75;21.80;;;3.60;99.90;;;;;;5090651;28;20035;-79
2022/12/08 07:22:46;;;;;;;19.05;17.00;;;3.50;99.90;;;;;;5090476;28;20024;-79
2022/12/08 07:25:12;;;;;;;21.98;17.48;;;;;;;;;;5107953;28;20052;-79
2022/12/08 07:27:39;;;;;;;19.08;17.05;;;3.50;99.90;;;;;;5108407;28;20040;-79
2022/12/08 07:30:05;;;;;;;26.55;20.20;;;3.50;99.90;;;;;;5108434;28;20088;-79
2022/12/08 07:32:31;;;;;;;22.73;20.00;;;3.50;99.90;;;;;;5090312;28;20055;-79
2022/12/08 07:34:57;;;;;;;23.92;21.83;;;;;;;;;;5090096;28;20040;-79
2022/12/08 07:37:23;;;;;;;20.48;18.25;;;3.50;99.90;;;;;;5102752;28;20078;-79
2022/12/08 07:39:49;;;;;;;19.52;17.52;;;4.00;99.90;;;;;;5108238;28;20036;-79
2022/12/08 07:42:15;;;;;;;22.55;20.17;;;;;;;;;;5073324;28;20039;-80
2022/12/08 07:44:45;;;;;;;;;;;3.40;99.90;;;;;;5090138;28;20087;-80
2022/12/08 07:47:10;;;;;;;20.67;18.55;;;3.40;99.90;;;;;;5108436;28;19912;-80
2022/12/08 07:49:36;;;;;;;26.08;20.13;;;3.40;99.90;;;;;;5088669;28;20032;-80
2022/12/08 07:52:02;;;;;;;20.42;18.23;;;3.90;99.90;;;;;;5089971;28;20028;-80
2022/12/08 07:54:28;;;;;;;19.73;17.88;;;3.50;99.90;;;;;;5107381;28;20023;-79
2022/12/08 07:56:56;;;;;;;23.35;20.17;;;3.50;99.90;;;;;;5107948;28;20032;-80
2022/12/08 07:59:22;;;;;;;19.65;17.67;;;3.50;99.90;;;;;;5089974;28;20051;-80
2022/12/08 08:01:49;;;;;;;21.48;19.27;;;3.50;99.90;;;;;;5089959;28;20054;-80
2022/12/08 08:04:15;;;;;;;22.30;19.70;;;3.50;99.90;;;;;;5107927;28;20081;-80
2022/12/08 08:06:41;;;;;;;23.17;21.05;;;3.50;99.90;;;;;;5073303;28;20032;-80
2022/12/08 08:09:08;;;;;;;24.98;19.60;;;3.50;99.90;;;;;;5089265;28;20039;-80
2022/12/08 08:11:35;;;;;;;27.27;20.77;;;3.60;99.90;;;;;;5107600;28;20032;-80
2022/12/08 08:14:01;;;;;;;20.27;18.00;;;3.60;99.90;;;;;;5072926;28;20093;-80
2022/12/08 08:16:28;;;;;;;27.92;19.25;;;3.60;99.90;;;;;;5072981;28;20085;-80
2022/12/08 08:18:54;;;;;;;21.35;19.33;;;3.60;99.90;;;;;;5089069;28;20027;-79
2022/12/08 08:21:20;;;;;;;17.85;15.95;;;3.60;99.90;;;;;;5069334;28;20127;-80
2022/12/08 08:23:46;;;;;;;22.65;19.02;;;3.70;99.90;;;;;;5070275;28;20054;-80
2022/12/08 08:26:12;;;;;;;22.08;17.45;;;3.60;99.90;;;;;;5055970;28;20059;-80
2022/12/08 08:28:37;;;;;;;17.40;15.55;;;3.70;99.90;;;;;;5089360;28;20032;-79
2022/12/08 08:31:04;;;;;;;20.65;17.58;;;3.70;99.90;;;;;;5089318;28;20035;-80
2022/12/08 08:33:30;;;;;;;22.70;18.23;;;3.70;99.90;;;;;;5107471;28;20020;-80
2022/12/08 08:35:57;;;;;;;18.98;16.45;;;3.70;99.90;;;;;;5089425;28;20390;-80
2022/12/08 08:38:23;;;;;;;19.50;16.52;;;3.70;99.90;;;;;;5088725;28;20107;-80
2022/12/08 08:40:49;;;;;;;21.35;18.67;;;3.70;99.90;;;;;;5107331;28;20036;-80
2022/12/08 08:43:30;;;;;;;21.70;15.85;;;3.80;99.90;;;;;;5055925;28;20062;-79
2022/12/08 08:45:59;;;;;;;18.10;16.25;;;3.80;99.90;;;;;;5074673;28;20063;-80
2022/12/08 08:48:26;;;;;;;17.73;15.82;;;3.80;99.90;;;;;;5088407;28;20146;-80
2022/12/08 08:50:52;;;;;;;16.70;14.98;;;3.80;99.90;;;;;;5072108;28;20028;-80
2022/12/08 08:53:19;;;;;;;18.85;15.18;;;3.90;99.90;;;;;;5088952;28;20031;-79
2022/12/08 08:55:45;;;;;;;18.88;14.48;;;3.80;99.90;;;;;;5107079;28;20017;-80
2022/12/08 08:58:11;;;;;;;21.92;14.07;;;4.00;99.90;;;;;;5088600;28;20031;-80
2022/12/08 09:00:37;;;;;;;25.58;13.30;;;4.00;99.90;;;;;;5072170;28;20024;-80
2022/12/08 09:03:03;;;;;;;16.17;14.52;;;4.00;99.90;;;;;;5071978;28;20057;-80
2022/12/08 09:05:29;;;;;;;16.27;13.25;;;4.00;99.90;;;;;;5088384;28;20028;-80
2022/12/08 09:07:56;;;;;;;15.68;14.15;;;4.00;99.90;;;;;;5055789;28;20541;-80
2022/12/08 09:10:22;;;;;;;13.95;12.60;;;4.10;99.90;;;;;;5068149;28;20039;-80
2022/12/08 09:12:47;;;;;;;16.98;13.40;;;4.20;99.90;;;;;;5051738;28;20036;-80
2022/12/08 09:15:13;;;;;;;13.00;11.52;;;4.30;99.90;;;;;;5051926;28;20039;-80
2022/12/08 09:17:39;;;;;;;14.73;13.20;;;4.20;99.90;;;;;;5085022;28;20021;-80
2022/12/08 09:20:06;;;;;;;14.80;13.23;;;4.30;99.90;;;;;;5069528;28;20119;-80
2022/12/08 09:22:32;;;;;;;16.17;12.02;;;4.30;99.90;;;;;;5106628;28;20028;-80
2022/12/08 09:24:57;;;;;;;16.48;12.75;;;4.40;99.90;;;;;;5088414;28;20024;-80
2022/12/08 09:27:24;;;;;;;18.38;12.48;;;4.40;99.90;;;;;;5106480;28;20539;-80
2022/12/08 09:29:51;;;;;;;17.30;13.05;;;4.50;99.90;;;;;;5088313;28;20028;-80
2022/12/08 09:32:17;;;;;;;17.30;11.57;;;4.60;99.90;;;;;;5088318;28;20031;-80
2022/12/08 09:34:43;;;;;;;46.80;32.38;;;4.80;99.90;;;;;;5087961;28;20084;-80
2022/12/08 09:37:09;;;;;;;19.67;16.45;;;5.00;99.90;;;;;;5106220;28;20047;-80
2022/12/08 09:39:35;;;;;;;13.05;8.80;;;5.40;99.90;;;;;;5088245;28;20060;-80
2022/12/08 09:42:05;;;;;;;12.40;9.68;;;5.70;99.90;;;;;;5071511;28;20035;-80
2022/12/08 09:44:56;;;;;;;8.15;7.15;;;5.70;99.90;;;;;;5088432;28;20502;-80
2022/12/08 09:47:59;;;;;;;9.50;8.65;;;5.80;99.90;;;;;;5088411;28;20438;-80
2022/12/08 09:50:54;;;;;;;12.57;10.02;;;6.00;99.90;;;;;;5074659;28;20044;-80
2022/12/08 09:53:28;;;;;;;10.30;7.63;;;6.30;99.90;;;;;;5105688;28;20044;-80
2022/12/08 09:56:26;;;;;;;9.10;7.72;;;6.40;99.90;;;;;;5087725;28;20099;-80
2022/12/08 09:58:55;;;;;;;9.95;8.45;;;6.40;99.90;;;;;;5086307;28;20068;-80
2022/12/08 10:01:26;;;;;;;9.23;6.35;;;6.50;99.90;;;;;;5106074;28;20044;-80
2022/12/08 10:03:53;;;;;;;7.90;6.97;;;6.60;99.90;;;;;;5071365;28;20045;-80
2022/12/08 10:06:28;;;;;;;7.47;6.65;;;7.10;99.90;;;;;;5087577;28;20028;-80
2022/12/08 10:08:54;;;;;;;13.95;8.85;;;7.70;99.90;;;;;;5105805;28;20041;-80
2022/12/08 10:11:50;;;;;;;10.40;6.30;;;8.50;99.90;;;;;;5087977;28;20020;-80
2022/12/08 10:14:37;;;;;;;8.60;6.07;;;9.00;99.90;;;;;;5036308;28;20111;-80
2022/12/08 10:17:24;;;;;;;5.80;5.00;;;8.20;99.90;;;;;;5110014;28;20054;-80
2022/12/08 10:20:05;;;;;;;7.22;6.05;;;7.90;99.90;;;;;;5074818;28;20043;-80
2022/12/08 10:22:33;;;;;;;7.72;4.55;;;7.60;99.90;;;;;;5090443;28;20054;-80
2022/12/08 10:25:06;;;;;;;5.70;4.63;;;7.80;99.90;;;;;;5109933;28;20371;-79
2022/12/08 10:27:35;;;;;;;9.35;6.43;;;8.30;99.90;;;;;;5109972;28;20035;-80
2022/12/08 10:30:05;;;;;;;8.90;5.82;;;8.70;99.90;;;;;;5074761;28;20024;-79
2022/12/08 10:32:34;;;;;;;6.72;4.70;;;8.90;99.90;;;;;;5109212;28;20091;-79
2022/12/08 10:35:08;;;;;;;6.47;4.60;;;9.80;99.90;;;;;;5109857;28;20024;-80
2022/12/08 10:37:35;;;;;;;10.57;7.82;;;10.30;99.90;;;;;;5089981;28;20036;-80
2022/12/08 10:40:16;;;;;;;8.32;5.30;;;10.70;99.90;;;;;;5074968;28;20025;-80
2022/12/08 10:42:46;;;;;;;10.43;5.72;;;11.20;99.90;;;;;;5109302;28;20031;-80
2022/12/08 10:45:15;;;;;;;11.77;5.05;;;11.30;99.90;;;;;;5109912;28;20031;-79
2022/12/08 10:47:46;;;;;;;5.75;4.82;;;11.40;99.90;;;;;;5091203;28;20028;-80
2022/12/08 10:50:43;;;;;;;10.60;4.45;;;10.50;99.90;;;;;;5069378;28;20047;-79
2022/12/08 10:53:30;;;;;;;6.63;5.18;;;9.30;99.90;;;;;;5090372;28;20032;-80
2022/12/08 10:56:13;;;;;;;5.43;4.65;;;8.40;99.90;;;;;;5090979;28;20569;-80
2022/12/08 10:58:41;;;;;;;5.55;4.40;;;8.20;99.90;;;;;;5074464;28;20055;-80
2022/12/08 11:01:26;;;;;;;7.78;6.05;;;8.00;99.90;;;;;;5108485;28;20024;-80
2022/12/08 11:04:02;;;;;;;13.18;11.27;;;7.90;99.90;;;;;;5109270;28;20052;-80
2022/12/08 11:06:27;;;;;;;6.97;6.38;;;7.80;99.90;;;;;;5109402;28;20039;-79
2022/12/08 11:09:01;;;;;;;12.63;10.90;;;7.40;99.90;;;;;;5109993;28;20024;-79
2022/12/08 11:12:00;;;;;;;9.02;7.18;;;7.20;99.90;;;;;;5090982;28;20394;-79
2022/12/08 11:14:27;;;;;;;10.23;6.40;;;7.00;99.90;;;;;;5031106;28;20036;-79
2022/12/08 11:17:07;;;;;;;8.27;6.00;;;6.70;99.90;;;;;;5108747;28;20462;-79
2022/12/08 11:19:37;;;;;;;8.55;7.53;;;6.50;99.90;;;;;;5108907;28;20058;-79
2022/12/08 11:22:20;;;;;;;11.85;6.65;;;6.40;99.90;;;;;;5108888;28;20106;-79
2022/12/08 11:24:56;;;;;;;7.05;6.45;;;6.40;99.90;;;;;;5107468;28;20390;-79
2022/12/08 11:27:22;;;;;;;19.45;9.65;;;6.30;99.90;;;;;;5073976;28;20044;-79
2022/12/08 11:29:48;;;;;;;12.00;7.05;;;6.30;99.90;;;;;;5108295;28;20052;-79
2022/12/08 11:32:14;;;;;;;7.88;6.05;;;6.30;99.90;;;;;;5108253;28;20085;-79
2022/12/08 11:34:48;;;;;;;12.00;11.00;;;6.30;99.90;;;;;;5108279;28;20103;-79
2022/12/08 11:37:40;;;;;;;7.38;6.70;;;6.20;99.90;;;;;;5108322;28;20094;-79
2022/12/08 11:40:16;;;;;;;7.03;6.40;;;6.30;99.90;;;;;;5090558;28;20597;-79
2022/12/08 11:43:01;;;;;;;7.43;5.72;;;6.30;99.90;;;;;;5108338;28;20032;-79
2022/12/08 11:45:33;;;;;;;12.07;7.63;;;6.20;99.90;;;;;;5108377;28;20020;-79
2022/12/08 11:48:10;;;;;;;8.95;8.05;;;6.30;99.90;;;;;;5107988;28;20039;-79
2022/12/08 11:50:50;;;;;;;8.57;7.50;;;6.50;99.90;;;;;;5107997;28;20035;-79
2022/12/08 11:53:37;;;;;;;7.97;6.30;;;6.40;99.90;;;;;;5089956;28;20107;-79
2022/12/08 11:56:26;;;;;;;7.13;6.43;;;6.60;99.90;;;;;;5090199;28;20028;-80
2022/12/08 11:59:04;;;;;;;10.57;6.43;;;6.70;99.90;;;;;;5108102;28;20028;-80
2022/12/08 12:01:30;;;;;;;8.63;6.18;;;6.60;99.90;;;;;;5089741;28;20095;-79
2022/12/08 12:04:17;;;;;;;7.63;6.93;;;6.60;99.90;;;;;;5070380;28;20211;-79
2022/12/08 12:07:02;;;;;;;35.13;32.17;;;6.70;99.90;;;;;;5073150;28;20051;-79
2022/12/08 12:09:56;;;;;;;9.82;8.80;;;6.90;99.90;;;;;;5089763;28;20048;-79
2022/12/08 12:12:51;;;;;;;10.80;6.65;;;6.90;99.90;;;;;;5090019;28;20024;-79
2022/12/08 12:15:46;;;;;;;7.85;7.10;;;6.80;99.90;;;;;;5089565;28;20100;-79
2022/12/08 12:18:45;;;;;;;10.77;7.57;;;6.60;99.90;;;;;;5089473;28;20371;-80
2022/12/08 12:21:45;;;;;;;8.35;7.57;;;6.40;99.90;;;;;;5087526;28;20021;-79
2022/12/08 12:24:33;;;;;;;11.75;7.95;;;6.40;99.90;;;;;;5052699;28;20037;-79
2022/12/08 12:27:01;;;;;;;9.15;8.40;;;6.30;99.90;;;;;;5087340;28;20084;-79
2022/12/08 12:29:32;;;;;;;8.65;7.28;;;6.30;99.90;;;;;;5069114;28;20036;-79
2022/12/08 12:32:01;;;;;;;12.88;6.97;;;6.50;99.90;;;;;;5069039;28;20024;-79
2022/12/08 12:34:55;;;;;;;8.07;7.38;;;6.60;99.90;;;;;;5089326;28;20027;-79
2022/12/08 12:37:37;;;;;;;7.70;6.93;;;6.60;99.90;;;;;;5071785;28;20048;-79
2022/12/08 12:40:14;;;;;;;10.18;7.07;;;6.30;99.90;;;;;;5085784;28;20051;-79
2022/12/08 12:42:55;;;;;;;7.80;7.18;;;6.20;99.90;;;;;;5085713;28;20035;-78
2022/12/08 12:45:21;;;;;;;9.27;6.65;;;6.00;99.90;;;;;;5087090;28;20024;-79
2022/12/08 12:47:49;;;;;;;9.65;5.93;;;5.90;99.90;;;;;;5085352;28;20399;-79
2022/12/08 12:50:34;;;;;;;7.72;5.72;;;5.80;99.90;;;;;;5086730;28;20039;-79
2022/12/08 12:53:45;;;;;;;7.45;6.50;;;5.80;99.90;;;;;;5086768;28;20029;-79
2022/12/08 12:56:52;;;;;;;10.60;8.70;;;5.70;99.90;;;;;;5085297;28;20020;-79
2022/12/08 12:59:38;;;;;;;9.23;8.18;;;5.70;99.90;;;;;;5085601;28;20574;-79
2022/12/08 13:02:24;;;;;;;11.30;9.55;;;5.60;99.90;;;;;;5086261;28;20028;-79
2022/12/08 13:05:16;;;;;;;8.75;8.07;;;5.50;99.90;;;;;;5068743;28;20058;-79
2022/12/08 13:08:17;;;;;;;13.63;9.75;;;5.50;99.90;;;;;;5085354;28;20036;-79
2022/12/08 13:11:07;;;;;;;10.38;9.20;;;5.40;99.90;;;;;;5086107;28;20028;-79
2022/12/08 13:13:34;;;;;;;10.30;9.38;;;5.40;99.90;;;;;;5086672;28;20032;-79